Terminal Aerodrome Forecast
Issued by NWS

Home | Current Version | Previous Version | Text Only | Print | Product List | Glossary On
Versions: 1 2 3 4 5 6 7 8 9 10 11 12 13 14 15 16 17
000
FTUS46 KSEW 271200 AAA
TAFBFI
TAF AMD
KBFI 271226Z 2712/2812 00000KT P6SM FEW009 BKN045
     FM271900 29005KT P6SM SCT045
     FM272100 29005KT P6SM SCT050 SCT100=

USA.gov is the U.S. government's official web portal to all federal, state and local government web resources and services.